createdAt,value
2018-02-06T00:00:24.724Z,-0.50
2018-02-06T00:02:57.166Z,-0.60
2018-02-06T00:05:29.639Z,-0.50
2018-02-06T00:08:03.111Z,-0.50
2018-02-06T00:10:35.623Z,-0.40
2018-02-06T00:13:07.944Z,-0.90
2018-02-06T00:15:41.068Z,-0.60
2018-02-06T00:18:13.972Z,-0.30
2018-02-06T00:20:46.536Z,-0.50
2018-02-06T00:23:19.030Z,-0.30
2018-02-06T00:25:52.241Z,-0.30
2018-02-06T00:28:25.170Z,-0.40
2018-02-06T00:30:58.635Z,-0.30
2018-02-06T00:33:31.397Z,-0.50
2018-02-06T00:36:03.940Z,-0.30
2018-02-06T00:38:37.245Z,-0.40
2018-02-06T00:41:10.786Z,-0.60
2018-02-06T00:43:43.764Z,-0.40
2018-02-06T00:46:16.549Z,-0.60
2018-02-06T00:48:49.182Z,-0.30
2018-02-06T00:51:21.812Z,-0.50
2018-02-06T00:53:54.576Z,-0.20
2018-02-06T00:56:27.286Z,-0.30
2018-02-06T00:59:00.529Z,-0.30
2018-02-06T01:01:33.303Z,-0.30
2018-02-06T01:04:06.717Z,-0.20
2018-02-06T01:06:39.943Z,-0.50
2018-02-06T01:09:12.365Z,-0.20
2018-02-06T01:11:45.061Z,-0.30
2018-02-06T01:14:17.472Z,-0.40
2018-02-06T01:16:50.039Z,-0.20
2018-02-06T01:19:22.402Z,-0.20
2018-02-06T01:21:55.095Z,-0.50
2018-02-06T01:24:28.008Z,-0.40
2018-02-06T01:27:01.055Z,-0.40
2018-02-06T01:29:33.609Z,-0.30
2018-02-06T01:32:06.007Z,-0.40
2018-02-06T01:34:38.589Z,-0.60
2018-02-06T01:37:11.337Z,-0.70
2018-02-06T01:39:43.964Z,-0.70
2018-02-06T01:42:17.405Z,-0.40
2018-02-06T01:44:50.177Z,-0.30
2018-02-06T01:47:22.656Z,-0.50
2018-02-06T01:50:03.477Z,-0.50
2018-02-06T01:52:36.141Z,-0.30
2018-02-06T01:55:10.088Z,-0.30
2018-02-06T01:57:42.871Z,-0.30
2018-02-06T02:00:16.344Z,-0.40
2018-02-06T02:02:49.771Z,-0.30
2018-02-06T02:05:22.665Z,-0.30
2018-02-06T02:07:56.484Z,-0.30
2018-02-06T02:10:29.058Z,-0.40
2018-02-06T02:13:01.642Z,-0.30
2018-02-06T02:15:34.116Z,-0.30
2018-02-06T02:18:07.170Z,-0.20
2018-02-06T02:20:39.746Z,-0.20
2018-02-06T02:23:12.229Z,-0.30
2018-02-06T02:25:44.898Z,-0.30
2018-02-06T02:28:17.233Z,-0.30
2018-02-06T02:30:49.826Z,-0.30
2018-02-06T02:33:22.563Z,-0.30
2018-02-06T02:35:55.112Z,-0.30
2018-02-06T02:38:28.275Z,-0.30
2018-02-06T02:41:01.034Z,-0.40
2018-02-06T04:40:41.168Z,-0.70
2018-02-06T04:43:14.367Z,-0.50
2018-02-06T04:45:47.180Z,-0.50
2018-02-06T04:48:21.584Z,-0.60
2018-02-06T04:50:54.970Z,-0.60
2018-02-06T04:53:27.760Z,-0.80
2018-02-06T04:56:00.354Z,-0.50
2018-02-06T04:58:32.772Z,-0.70
2018-02-06T05:01:07.357Z,-0.70
2018-02-06T05:03:39.949Z,-0.80
2018-02-06T05:06:13.475Z,-0.70
2018-02-06T05:08:46.185Z,-0.70
2018-02-06T05:11:18.968Z,-0.70
2018-02-06T05:13:51.524Z,-0.40
2018-02-06T05:16:24.656Z,-0.60
2018-02-06T05:18:57.863Z,-0.40
2018-02-06T05:21:30.439Z,-0.20
2018-02-06T05:24:02.933Z,-0.10
2018-02-06T05:26:35.789Z,-0.10
2018-02-06T05:29:08.321Z,0.00
2018-02-06T05:31:40.956Z,-0.20
2018-02-06T05:34:13.292Z,-0.20
2018-02-06T05:36:46.685Z,-0.30
2018-02-06T05:39:20.246Z,-0.40
2018-02-06T05:41:53.022Z,-0.40
2018-02-06T05:44:26.308Z,-0.40
2018-02-06T05:46:59.272Z,-0.20
2018-02-06T05:49:31.737Z,-0.40
2018-02-06T05:52:05.109Z,-0.70
2018-02-06T05:54:38.159Z,-0.50
2018-02-06T05:57:10.820Z,-0.60
2018-02-06T05:59:43.156Z,-0.50
2018-02-06T06:02:15.956Z,-0.50
2018-02-06T06:04:49.207Z,-0.60
2018-02-06T06:07:21.874Z,-0.50
2018-02-06T06:09:54.496Z,-0.50
2018-02-06T06:12:27.032Z,-0.70
2018-02-06T06:14:59.530Z,-0.70
2018-02-06T06:17:32.929Z,-0.60
2018-02-06T06:20:05.572Z,-0.80
2018-02-06T06:22:38.655Z,-0.50
2018-02-06T06:25:11.339Z,-0.50
2018-02-06T06:27:44.793Z,-0.90
2018-02-06T06:30:17.124Z,-0.80
2018-02-06T06:32:50.261Z,-0.80
2018-02-06T06:35:23.681Z,-0.90
2018-02-06T06:37:56.406Z,-0.70
2018-02-06T06:40:28.781Z,-0.80
2018-02-06T06:43:01.692Z,-0.50
2018-02-06T06:45:34.098Z,-0.60
2018-02-06T06:48:06.722Z,-0.80
2018-02-06T06:50:39.221Z,-0.60
2018-02-06T06:53:12.637Z,-0.70
2018-02-06T06:55:45.387Z,-0.90
2018-02-06T06:58:17.838Z,-0.60
2018-02-06T07:00:51.071Z,-0.60
2018-02-06T07:03:24.077Z,-0.60
2018-02-06T07:05:57.647Z,-0.70
2018-02-06T07:08:31.023Z,-0.70
2018-02-06T07:11:04.528Z,-0.70
2018-02-06T07:13:37.373Z,-0.80
2018-02-06T07:16:10.618Z,-0.40
2018-02-06T07:18:44.223Z,-0.50
2018-02-06T07:21:17.182Z,-0.60
2018-02-06T07:23:49.772Z,-0.60
2018-02-06T07:26:22.355Z,-0.70
2018-02-06T07:28:55.854Z,-0.50
2018-02-06T07:31:28.463Z,-0.60
2018-02-06T07:34:01.699Z,-0.60
2018-02-06T07:36:35.461Z,-0.50
2018-02-06T07:39:08.322Z,-0.50
2018-02-06T07:41:40.986Z,-0.30
2018-02-06T07:44:13.586Z,-0.40
2018-02-06T07:46:46.831Z,-0.40
2018-02-06T07:49:19.690Z,-0.40
2018-02-06T07:51:52.089Z,-0.50
2018-02-06T07:54:25.546Z,-0.40
2018-02-06T07:56:58.225Z,-0.30
2018-02-06T07:59:30.896Z,-0.30
2018-02-06T08:02:04.036Z,-0.50
2018-02-06T08:04:36.870Z,-0.40
2018-02-06T08:07:09.396Z,-0.30
2018-02-06T08:09:41.862Z,-0.30
2018-02-06T08:12:14.405Z,-0.50
2018-02-06T08:14:48.031Z,-0.30
2018-02-06T08:17:21.042Z,-0.30
2018-02-06T08:19:53.623Z,-0.40
2018-02-06T08:22:26.103Z,-0.30
2018-02-06T08:24:59.266Z,-0.10
2018-02-06T08:27:32.056Z,-0.30
2018-02-06T08:30:05.534Z,-0.30
2018-02-06T08:32:38.462Z,-0.50
2018-02-06T08:35:11.078Z,-0.40
2018-02-06T08:37:44.817Z,-0.20
2018-02-06T08:40:17.433Z,-0.50
2018-02-06T08:42:50.663Z,-0.20
2018-02-06T08:45:23.287Z,-0.10
2018-02-06T08:47:55.822Z,-0.30
2018-02-06T08:50:28.289Z,-0.20
2018-02-06T08:53:00.893Z,-0.20
2018-02-06T08:55:33.578Z,-0.20
2018-02-06T08:58:06.928Z,0.20
2018-02-06T09:00:39.752Z,-0.10
2018-02-06T09:03:12.095Z,0.00
2018-02-06T09:05:44.783Z,0.00
2018-02-06T09:08:17.142Z,0.10
2018-02-06T09:10:49.744Z,0.20
2018-02-06T09:13:22.399Z,0.40
2018-02-06T09:15:55.828Z,0.20
2018-02-06T09:18:28.357Z,0.40
2018-02-06T09:21:01.072Z,0.70
2018-02-06T09:23:34.199Z,0.70
2018-02-06T09:26:07.482Z,0.60
2018-02-06T09:28:40.168Z,0.60
2018-02-06T09:31:12.570Z,0.90
2018-02-06T09:33:45.021Z,0.80
2018-02-06T09:36:18.185Z,1.10
2018-02-06T09:38:50.886Z,1.00
2018-02-06T09:41:23.481Z,1.10
2018-02-06T09:43:56.690Z,1.40
2018-02-06T09:46:29.081Z,1.40
2018-02-06T09:49:01.435Z,1.50
2018-02-06T09:51:34.127Z,1.40
2018-02-06T09:54:07.365Z,1.50
2018-02-06T09:56:40.224Z,1.60
2018-02-06T09:59:13.348Z,1.60
2018-02-06T10:01:45.730Z,1.60
2018-02-06T10:04:18.139Z,1.90
2018-02-06T10:06:50.833Z,2.10
2018-02-06T10:09:23.123Z,2.20
2018-02-06T10:11:55.967Z,2.40
2018-02-06T10:14:28.393Z,2.50
2018-02-06T10:17:01.596Z,2.80
2018-02-06T10:19:34.557Z,2.80
2018-02-06T10:22:06.986Z,3.00
2018-02-06T10:24:39.624Z,3.30
2018-02-06T10:27:12.101Z,3.50
2018-02-06T10:29:44.502Z,3.60
2018-02-06T10:32:17.942Z,3.80
2018-02-06T10:34:50.683Z,3.80
2018-02-06T10:37:24.125Z,3.70
2018-02-06T10:39:57.252Z,3.70
2018-02-06T10:42:29.768Z,3.60
2018-02-06T10:45:02.428Z,3.50
2018-02-06T10:47:35.707Z,3.40
2018-02-06T10:50:08.196Z,3.40
2018-02-06T10:52:40.693Z,3.40
2018-02-06T10:55:14.096Z,3.50
2018-02-06T10:57:46.870Z,3.50
2018-02-06T11:00:19.406Z,3.50
2018-02-06T11:02:52.139Z,3.50
2018-02-06T11:05:24.778Z,3.50
2018-02-06T11:07:58.102Z,3.50
2018-02-06T11:10:30.881Z,3.50
2018-02-06T11:13:03.438Z,3.40
2018-02-06T11:15:36.836Z,3.40
2018-02-06T11:18:09.984Z,3.40
2018-02-06T11:20:43.349Z,3.40
2018-02-06T11:23:16.102Z,3.40
2018-02-06T11:25:48.660Z,3.40
2018-02-06T11:28:21.990Z,3.30
2018-02-06T11:30:55.601Z,3.20
2018-02-06T11:33:28.475Z,3.20
2018-02-06T11:36:00.972Z,3.20
2018-02-06T11:38:33.491Z,3.20
2018-02-06T11:41:05.925Z,3.10
2018-02-06T11:43:38.450Z,3.10
2018-02-06T11:46:11.051Z,2.70
2018-02-06T11:48:43.857Z,3.10
2018-02-06T11:51:16.509Z,3.10
2018-02-06T11:53:49.118Z,3.00
2018-02-06T11:56:21.445Z,3.00
2018-02-06T11:58:54.896Z,3.00
2018-02-06T12:01:27.414Z,3.00
2018-02-06T12:04:00.044Z,3.10
2018-02-06T12:06:33.296Z,3.10
2018-02-06T12:09:06.170Z,3.00
2018-02-06T12:11:38.859Z,3.00
2018-02-06T12:14:12.160Z,2.90
2018-02-06T12:16:45.037Z,2.90
2018-02-06T12:19:17.697Z,2.90
2018-02-06T12:21:50.211Z,3.00
2018-02-06T12:24:22.938Z,3.00
2018-02-06T12:26:55.494Z,3.10
2018-02-06T12:29:28.078Z,3.10
2018-02-06T12:32:00.581Z,3.10
2018-02-06T12:34:33.063Z,3.10
2018-02-06T12:37:05.445Z,3.10
2018-02-06T12:39:37.932Z,3.10
2018-02-06T12:42:10.453Z,3.00
2018-02-06T12:44:42.959Z,3.10
2018-02-06T12:47:15.416Z,3.10
2018-02-06T12:49:47.822Z,3.10
2018-02-06T12:52:21.117Z,3.10
2018-02-06T12:54:53.897Z,3.00
2018-02-06T12:57:27.843Z,3.10
2018-02-06T13:00:00.550Z,3.10
2018-02-06T13:02:33.118Z,3.10
2018-02-06T13:05:06.588Z,3.10
2018-02-06T13:07:39.070Z,3.10
2018-02-06T13:10:11.508Z,3.10
2018-02-06T13:12:43.942Z,3.10
2018-02-06T13:15:16.339Z,3.10
2018-02-06T13:17:49.007Z,3.20
2018-02-06T13:20:21.754Z,3.20
2018-02-06T13:22:54.188Z,3.20
2018-02-06T13:25:26.743Z,3.20
2018-02-06T13:28:00.060Z,3.20
2018-02-06T13:30:33.451Z,3.30
2018-02-06T13:33:06.202Z,3.30
2018-02-06T13:35:38.845Z,3.20
2018-02-06T13:38:11.394Z,3.10
2018-02-06T13:40:43.938Z,3.00
2018-02-06T13:43:16.437Z,2.90
2018-02-06T13:45:49.277Z,2.90
2018-02-06T13:48:22.514Z,2.60
2018-02-06T13:50:55.105Z,2.80
2018-02-06T13:53:27.563Z,2.80
2018-02-06T13:56:00.266Z,2.70
2018-02-06T13:58:32.951Z,2.70
2018-02-06T14:01:06.113Z,2.70
2018-02-06T14:03:38.983Z,2.70
2018-02-06T14:06:11.738Z,2.70
2018-02-06T14:08:45.052Z,2.70
2018-02-06T14:11:17.558Z,2.70
2018-02-06T14:13:50.298Z,2.80
2018-02-06T14:16:22.708Z,2.80
2018-02-06T14:18:55.276Z,2.80
2018-02-06T14:21:27.889Z,2.80
2018-02-06T14:24:00.266Z,2.80
2018-02-06T14:26:32.833Z,2.90
2018-02-06T14:29:05.425Z,2.60
2018-02-06T14:31:37.958Z,2.80
2018-02-06T14:34:10.484Z,2.90
2018-02-06T14:36:43.274Z,2.80
2018-02-06T14:39:17.253Z,2.80
2018-02-06T14:41:50.224Z,2.80
2018-02-06T14:44:22.813Z,2.90
2018-02-06T14:46:56.204Z,2.90
2018-02-06T14:49:29.038Z,2.50
2018-02-06T14:52:01.493Z,2.90
2018-02-06T14:54:34.828Z,2.90
2018-02-06T14:57:07.528Z,2.90
2018-02-06T14:59:40.141Z,3.00
2018-02-06T15:02:12.796Z,2.90
2018-02-06T15:04:45.913Z,2.90
2018-02-06T15:07:18.877Z,2.80
2018-02-06T15:09:51.275Z,2.90
2018-02-06T15:12:23.930Z,2.90
2018-02-06T15:14:56.463Z,2.90
2018-02-06T15:17:28.921Z,2.80
2018-02-06T15:20:02.158Z,2.80
2018-02-06T15:22:35.122Z,2.80
2018-02-06T15:25:07.463Z,2.80
2018-02-06T15:27:40.795Z,2.80
2018-02-06T15:30:14.169Z,2.70
2018-02-06T15:32:46.865Z,2.70
2018-02-06T15:35:19.235Z,2.70
2018-02-06T15:37:52.008Z,2.70
2018-02-06T15:40:25.293Z,2.50
2018-02-06T15:42:58.465Z,2.60
2018-02-06T15:45:31.339Z,2.60
2018-02-06T15:48:04.141Z,2.60
2018-02-06T15:50:36.613Z,2.60
2018-02-06T15:53:09.252Z,2.50
2018-02-06T15:55:41.566Z,2.50
2018-02-06T15:58:15.067Z,2.50
2018-02-06T16:00:49.048Z,2.50
2018-02-06T16:03:22.254Z,2.50
2018-02-06T16:05:55.502Z,2.60
2018-02-06T16:08:28.122Z,2.40
2018-02-06T16:11:00.570Z,2.50
2018-02-06T16:13:33.079Z,2.40
2018-02-06T16:16:05.534Z,2.30
2018-02-06T16:18:38.948Z,2.20
2018-02-06T16:21:11.773Z,2.20
2018-02-06T16:23:44.445Z,2.20
2018-02-06T16:26:16.925Z,2.10
2018-02-06T16:28:49.591Z,2.10
2018-02-06T16:31:22.106Z,2.00
2018-02-06T16:33:54.561Z,2.10
2018-02-06T16:36:27.438Z,2.10
2018-02-06T16:39:00.311Z,1.90
2018-02-06T16:41:32.712Z,1.80
2018-02-06T16:44:06.037Z,1.80
2018-02-06T16:46:38.549Z,1.70
2018-02-06T16:49:11.235Z,1.70
2018-02-06T16:51:43.817Z,1.60
2018-02-06T16:54:17.426Z,1.60
2018-02-06T16:56:50.010Z,1.60
2018-02-06T16:59:22.818Z,1.50
2018-02-06T17:01:55.263Z,1.60
2018-02-06T17:04:28.120Z,1.70
2018-02-06T17:07:01.375Z,1.50
2018-02-06T17:09:34.627Z,1.40
2018-02-06T17:12:07.407Z,1.50
2018-02-06T17:14:40.043Z,1.40
2018-02-06T17:17:12.662Z,1.50
2018-02-06T17:19:45.398Z,1.40
2018-02-06T17:22:17.833Z,1.40
2018-02-06T17:24:50.419Z,1.40
2018-02-06T17:27:22.962Z,1.30
2018-02-06T17:29:56.299Z,1.50
2018-02-06T17:32:29.183Z,1.40
2018-02-06T17:35:03.150Z,1.10
2018-02-06T17:37:37.246Z,1.00
2018-02-06T17:40:10.018Z,1.00
2018-02-06T17:42:42.738Z,1.10
2018-02-06T17:45:15.258Z,1.00
2018-02-06T17:47:49.104Z,1.20
2018-02-06T17:50:22.384Z,0.90
2018-02-06T17:52:55.063Z,1.00
2018-02-06T17:55:27.651Z,1.00
2018-02-06T17:58:00.948Z,0.80
2018-02-06T18:00:33.736Z,1.00
2018-02-06T18:03:06.297Z,1.10
2018-02-06T18:05:38.775Z,0.90
2018-02-06T18:08:11.465Z,1.00
2018-02-06T18:10:44.957Z,0.90
2018-02-06T18:13:17.944Z,0.90
2018-02-06T18:15:51.329Z,1.00
2018-02-06T18:18:25.102Z,0.70
2018-02-06T18:20:58.040Z,0.80
2018-02-06T18:23:30.575Z,0.80
2018-02-06T18:26:04.112Z,0.70
2018-02-06T18:28:37.419Z,0.80
2018-02-06T18:31:10.894Z,0.70
2018-02-06T18:33:43.268Z,0.70
2018-02-06T18:36:16.358Z,0.80
2018-02-06T18:38:52.152Z,0.80
2018-02-06T18:41:25.287Z,0.70
2018-02-06T18:43:59.002Z,0.50
2018-02-06T18:46:33.152Z,0.50
2018-02-06T18:49:06.658Z,0.70
2018-02-06T18:51:39.446Z,0.50
2018-02-06T18:54:13.828Z,0.60
2018-02-06T18:56:48.026Z,0.70
2018-02-06T18:59:22.029Z,0.40
2018-02-06T19:01:55.887Z,0.40
2018-02-06T19:04:28.638Z,0.60
2018-02-06T19:07:02.475Z,0.40
2018-02-06T19:09:35.763Z,0.40
2018-02-06T19:12:10.540Z,0.30
2018-02-06T19:14:45.572Z,0.20
2018-02-06T19:17:20.891Z,0.40
2018-02-06T19:19:56.286Z,0.20
2018-02-06T19:22:32.095Z,0.30
2018-02-06T19:25:07.144Z,0.20
2018-02-06T19:27:43.496Z,0.10
2018-02-06T19:30:19.264Z,0.10
2018-02-06T19:32:55.481Z,0.20
2018-02-06T19:35:31.685Z,0.30
2018-02-06T19:38:07.279Z,0.10
2018-02-06T19:40:42.348Z,0.20
2018-02-06T19:43:17.975Z,0.20
2018-02-06T19:45:53.615Z,0.10
2018-02-06T19:48:29.787Z,0.20
2018-02-06T19:51:04.838Z,0.10
2018-02-06T19:53:40.407Z,0.20
2018-02-06T19:56:15.719Z,0.20
2018-02-06T19:58:51.872Z,0.10
2018-02-06T20:01:28.090Z,0.00
2018-02-06T20:04:03.685Z,0.20
2018-02-06T20:06:39.432Z,0.10
2018-02-06T20:09:15.175Z,0.00
2018-02-06T20:11:50.883Z,-0.10
2018-02-06T20:14:26.723Z,-0.10
2018-02-06T20:17:03.161Z,0.00
2018-02-06T20:19:37.998Z,-0.20
2018-02-06T20:22:13.689Z,0.00
2018-02-06T20:24:49.628Z,0.00
2018-02-06T20:27:24.885Z,-0.20
2018-02-06T20:30:00.494Z,0.00
2018-02-06T20:32:36.554Z,-0.10
2018-02-06T20:35:12.178Z,0.00
2018-02-06T20:37:46.944Z,0.20
2018-02-06T20:40:22.606Z,-0.10
2018-02-06T20:42:58.644Z,0.10
2018-02-06T20:45:33.767Z,0.00
2018-02-06T20:48:09.181Z,0.10
2018-02-06T20:50:44.838Z,0.00
2018-02-06T20:53:20.823Z,0.00
2018-02-06T20:55:56.653Z,-0.20
2018-02-06T20:58:32.385Z,-0.30
2018-02-06T21:01:07.238Z,-0.30
2018-02-06T21:03:41.509Z,0.00
2018-02-06T21:06:15.815Z,-0.20
2018-02-06T21:08:51.376Z,-0.30
2018-02-06T21:11:26.623Z,-0.20
2018-02-06T21:14:02.296Z,-0.20
2018-02-06T21:16:38.065Z,-0.30
2018-02-06T21:19:13.269Z,-0.60
2018-02-06T21:21:48.187Z,-0.50
2018-02-06T21:24:23.160Z,-0.40
2018-02-06T21:26:57.128Z,-0.20
2018-02-06T21:29:32.928Z,-0.40
2018-02-06T21:32:08.298Z,-0.40
2018-02-06T21:34:42.841Z,-0.50
2018-02-06T21:37:16.746Z,-0.40
2018-02-06T21:39:50.717Z,-0.40
2018-02-06T21:42:24.413Z,-0.50
2018-02-06T21:44:57.817Z,-0.40
2018-02-06T21:47:30.632Z,-0.40
2018-02-06T21:50:03.683Z,-0.40
2018-02-06T21:52:37.146Z,-0.40
2018-02-06T21:55:09.591Z,-0.50
2018-02-06T21:57:43.046Z,-0.60
2018-02-06T22:00:15.594Z,-0.50
2018-02-06T22:02:48.406Z,-0.40
2018-02-06T22:05:21.603Z,-0.50
2018-02-06T22:07:54.883Z,-0.70
2018-02-06T22:10:27.421Z,-0.50
2018-02-06T22:13:00.033Z,-0.80
2018-02-06T22:15:33.280Z,-0.50
2018-02-06T22:18:05.758Z,-0.70
2018-02-06T22:20:39.098Z,-0.80
2018-02-06T22:23:12.939Z,-0.70
2018-02-06T22:25:45.552Z,-0.70
2018-02-06T22:28:19.133Z,-0.50
2018-02-06T22:30:51.562Z,-0.70
2018-02-06T22:33:24.682Z,-0.60
2018-02-06T22:35:57.299Z,-0.80
2018-02-06T22:38:29.936Z,-0.50
2018-02-06T22:41:02.473Z,-0.50
2018-02-06T22:43:35.209Z,-0.60
2018-02-06T22:46:08.309Z,-0.60
2018-02-06T22:48:40.955Z,-0.90
2018-02-06T22:51:14.060Z,-0.70
2018-02-06T22:53:46.814Z,-0.60
2018-02-06T22:56:19.407Z,-0.70
2018-02-06T22:58:52.160Z,-0.60
2018-02-06T23:01:25.308Z,-0.60
2018-02-06T23:03:58.013Z,-0.80
2018-02-06T23:06:31.159Z,-0.80
2018-02-06T23:09:04.238Z,-0.70
2018-02-06T23:11:36.777Z,-0.70
2018-02-06T23:14:09.678Z,-0.60
2018-02-06T23:16:42.945Z,-0.70
2018-02-06T23:19:15.474Z,-0.90
2018-02-06T23:21:48.161Z,-0.70
2018-02-06T23:24:20.599Z,-1.00
2018-02-06T23:26:53.128Z,-0.80
2018-02-06T23:29:25.640Z,-0.80
2018-02-06T23:31:58.967Z,-0.80
2018-02-06T23:34:31.507Z,-1.50
2018-02-06T23:37:03.970Z,-0.90
2018-02-06T23:39:36.642Z,-1.10
2018-02-06T23:42:08.991Z,-1.10
2018-02-06T23:44:42.265Z,-1.10
2018-02-06T23:47:15.203Z,-1.00
2018-02-06T23:49:48.612Z,-1.00
2018-02-06T23:52:21.037Z,-0.80
2018-02-06T23:54:53.736Z,-1.10
2018-02-06T23:57:27.000Z,-1.00
2018-02-06T23:59:59.704Z,-1.00
